createdAt,value
2016-11-14T00:00:26.841Z,0
2016-11-14T00:01:26.799Z,0
2016-11-14T00:02:26.789Z,0
2016-11-14T00:03:26.769Z,0
2016-11-14T00:04:26.817Z,0
2016-11-14T00:05:26.766Z,0
2016-11-14T00:06:26.878Z,0
2016-11-14T00:07:26.795Z,0
2016-11-14T00:08:27.070Z,0
2016-11-14T00:09:26.779Z,0
2016-11-14T00:10:26.824Z,0
2016-11-14T00:11:26.789Z,0
2016-11-14T00:12:26.930Z,0
2016-11-14T00:13:26.818Z,0
2016-11-14T00:14:27.016Z,0
2016-11-14T00:15:26.787Z,0
2016-11-14T00:16:26.765Z,0
2016-11-14T00:17:26.783Z,0
2016-11-14T00:18:26.812Z,0
2016-11-14T00:19:26.825Z,0
2016-11-14T00:20:26.870Z,0
2016-11-14T00:21:26.880Z,0
2016-11-14T00:22:26.809Z,0
2016-11-14T00:23:27.176Z,0
2016-11-14T00:24:26.915Z,0
2016-11-14T00:25:27.102Z,0
2016-11-14T00:26:26.806Z,0
2016-11-14T00:27:26.817Z,0
2016-11-14T00:28:26.819Z,0
2016-11-14T00:29:26.819Z,0
2016-11-14T00:30:26.847Z,0
2016-11-14T00:31:26.803Z,0
2016-11-14T00:32:27.019Z,0
2016-11-14T00:33:27.042Z,0
2016-11-14T00:34:27.013Z,0
2016-11-14T00:35:26.811Z,0
2016-11-14T00:36:26.829Z,0
2016-11-14T00:37:26.847Z,0
2016-11-14T00:38:26.866Z,0
2016-11-14T00:39:26.868Z,0
2016-11-14T00:40:26.945Z,0
2016-11-14T00:41:26.850Z,0
2016-11-14T00:42:26.807Z,0
2016-11-14T00:43:26.838Z,0
2016-11-14T00:44:26.820Z,0
2016-11-14T00:45:26.945Z,0
2016-11-14T00:46:26.904Z,0
2016-11-14T00:47:26.854Z,0
2016-11-14T00:48:26.837Z,0
2016-11-14T00:49:26.865Z,0
2016-11-14T00:50:26.843Z,0
2016-11-14T00:51:26.894Z,0
2016-11-14T00:52:27.169Z,0
2016-11-14T00:53:26.850Z,0
2016-11-14T00:54:26.857Z,0
2016-11-14T00:55:26.808Z,0
2016-11-14T00:56:26.809Z,0
2016-11-14T00:57:27.093Z,0
2016-11-14T00:58:27.077Z,0
2016-11-14T00:59:27.082Z,0
2016-11-14T01:00:27.090Z,0
2016-11-14T01:01:26.933Z,0
2016-11-14T01:02:26.860Z,0
2016-11-14T01:03:26.889Z,0
2016-11-14T01:04:26.850Z,0
2016-11-14T01:05:26.827Z,0
2016-11-14T01:06:26.821Z,0
2016-11-14T01:07:26.848Z,0
2016-11-14T01:08:26.850Z,0
2016-11-14T01:09:27.029Z,0
2016-11-14T01:10:26.862Z,0
2016-11-14T01:11:26.891Z,0
2016-11-14T01:12:26.930Z,0
2016-11-14T01:13:26.819Z,0
2016-11-14T01:14:26.906Z,0
2016-11-14T01:15:26.860Z,0
2016-11-14T01:16:26.796Z,0
2016-11-14T01:17:26.872Z,0
2016-11-14T01:18:26.838Z,0
2016-11-14T01:19:26.813Z,0
2016-11-14T01:20:26.940Z,0
2016-11-14T01:21:26.929Z,0
2016-11-14T01:22:26.868Z,0
2016-11-14T01:23:26.871Z,0
2016-11-14T01:24:26.863Z,0
2016-11-14T01:25:26.815Z,0
2016-11-14T01:26:27.285Z,0
2016-11-14T01:27:26.854Z,0
2016-11-14T01:28:26.932Z,0
2016-11-14T01:29:26.947Z,0
2016-11-14T01:30:26.953Z,0
2016-11-14T01:31:26.896Z,0
2016-11-14T01:32:26.935Z,0
2016-11-14T01:33:26.864Z,0
2016-11-14T01:34:26.901Z,0
2016-11-14T01:35:27.251Z,0
2016-11-14T01:36:26.844Z,0
2016-11-14T01:37:26.837Z,0
2016-11-14T01:38:26.902Z,0
2016-11-14T01:39:27.184Z,0
2016-11-14T01:40:26.912Z,0
2016-11-14T01:41:26.854Z,0
2016-11-14T01:42:26.864Z,0
2016-11-14T01:43:26.896Z,0
2016-11-14T01:44:26.961Z,0
2016-11-14T01:45:26.907Z,0
2016-11-14T01:46:26.989Z,0
2016-11-14T01:47:26.827Z,0
2016-11-14T01:48:26.805Z,0
2016-11-14T01:49:26.851Z,0
2016-11-14T01:50:26.872Z,0
2016-11-14T01:51:26.864Z,0
2016-11-14T01:52:26.830Z,0
2016-11-14T01:53:26.950Z,0
2016-11-14T01:54:26.869Z,0
2016-11-14T01:55:26.875Z,0
2016-11-14T01:56:26.957Z,0
2016-11-14T01:57:26.893Z,0
2016-11-14T01:58:26.826Z,0
2016-11-14T01:59:26.841Z,0
2016-11-14T02:00:26.886Z,0
2016-11-14T02:01:26.865Z,0
2016-11-14T02:02:26.989Z,0
2016-11-14T02:03:26.845Z,0
2016-11-14T02:04:26.957Z,0
2016-11-14T02:05:26.862Z,0
2016-11-14T02:06:26.827Z,0
2016-11-14T02:07:26.845Z,0
2016-11-14T02:08:26.863Z,0
2016-11-14T02:09:26.903Z,0
2016-11-14T02:10:26.883Z,0
2016-11-14T02:11:26.919Z,0
2016-11-14T02:12:26.917Z,0
2016-11-14T02:13:26.958Z,0
2016-11-14T02:14:26.923Z,0
2016-11-14T02:15:26.897Z,0
2016-11-14T02:16:26.995Z,0
2016-11-14T02:17:26.895Z,0
2016-11-14T02:18:26.919Z,0
2016-11-14T02:19:26.830Z,0
2016-11-14T02:20:27.252Z,0
2016-11-14T02:21:26.917Z,0
2016-11-14T02:22:26.893Z,0
2016-11-14T02:23:26.871Z,0
2016-11-14T02:24:26.932Z,0
2016-11-14T02:25:26.914Z,0
2016-11-14T02:26:26.880Z,0
2016-11-14T02:27:26.939Z,0
2016-11-14T02:28:27.031Z,0
2016-11-14T02:29:26.906Z,0
2016-11-14T02:30:26.899Z,0
2016-11-14T02:31:26.923Z,0
2016-11-14T02:32:26.869Z,0
2016-11-14T02:33:26.934Z,0
2016-11-14T02:34:26.903Z,0
2016-11-14T02:35:27.101Z,0
2016-11-14T02:36:26.986Z,0
2016-11-14T02:37:26.925Z,0
2016-11-14T02:38:26.897Z,0
2016-11-14T02:39:26.963Z,0
2016-11-14T02:40:26.932Z,0
2016-11-14T02:41:26.877Z,0
2016-11-14T02:42:27.555Z,0
2016-11-14T02:43:27.843Z,0
2016-11-14T02:44:26.894Z,0
2016-11-14T02:45:26.894Z,0
2016-11-14T02:46:26.923Z,0
2016-11-14T02:47:27.105Z,0
2016-11-14T02:48:26.893Z,0
2016-11-14T02:49:26.889Z,0
2016-11-14T02:50:26.886Z,0
2016-11-14T02:51:26.943Z,0
2016-11-14T02:52:26.930Z,0
2016-11-14T02:53:26.853Z,0
2016-11-14T02:54:26.985Z,0
2016-11-14T02:55:26.876Z,0
2016-11-14T02:56:26.930Z,0
2016-11-14T02:57:26.898Z,0
2016-11-14T02:58:26.912Z,0
2016-11-14T02:59:26.926Z,0
2016-11-14T03:00:26.917Z,0
2016-11-14T03:01:26.900Z,0
2016-11-14T03:02:26.945Z,0
2016-11-14T03:03:26.895Z,0
2016-11-14T03:04:26.993Z,0
2016-11-14T03:05:27.010Z,0
2016-11-14T03:06:26.943Z,0
2016-11-14T03:07:26.969Z,0
2016-11-14T03:08:27.000Z,0
2016-11-14T03:09:26.996Z,0
2016-11-14T03:10:26.924Z,0
2016-11-14T03:11:27.035Z,0
2016-11-14T03:12:26.915Z,0
2016-11-14T03:13:26.946Z,0
2016-11-14T03:14:26.913Z,0
2016-11-14T03:15:27.669Z,0
2016-11-14T03:16:26.985Z,0
2016-11-14T03:17:26.891Z,0
2016-11-14T03:18:26.911Z,0
2016-11-14T03:19:27.022Z,0
2016-11-14T03:20:27.043Z,0
2016-11-14T03:21:26.914Z,0
2016-11-14T03:22:26.981Z,0
2016-11-14T03:23:26.904Z,0
2016-11-14T03:24:26.984Z,0
2016-11-14T03:25:26.950Z,0
2016-11-14T03:26:26.962Z,0
2016-11-14T03:27:27.122Z,0
2016-11-14T03:28:26.926Z,0
2016-11-14T03:29:26.917Z,0
2016-11-14T03:30:26.969Z,0
2016-11-14T03:31:27.272Z,0
2016-11-14T03:32:26.976Z,0
2016-11-14T03:33:27.061Z,0
2016-11-14T03:34:26.918Z,0
2016-11-14T03:35:26.972Z,0
2016-11-14T03:36:26.994Z,0
2016-11-14T03:37:27.005Z,0
2016-11-14T03:38:27.053Z,0
2016-11-14T03:39:27.261Z,0
2016-11-14T03:40:27.055Z,0
2016-11-14T03:41:27.001Z,0
2016-11-14T03:42:27.096Z,0
2016-11-14T03:43:27.087Z,0
2016-11-14T03:44:26.996Z,0
2016-11-14T03:45:27.451Z,0
2016-11-14T03:46:26.965Z,0
2016-11-14T03:47:26.927Z,0
2016-11-14T03:48:26.992Z,0
2016-11-14T03:49:27.004Z,0
2016-11-14T03:50:26.977Z,0
2016-11-14T03:51:26.973Z,0
2016-11-14T03:52:27.478Z,0
2016-11-14T03:53:26.929Z,0
2016-11-14T03:54:26.944Z,0
2016-11-14T03:55:26.937Z,0
2016-11-14T03:56:27.033Z,0
2016-11-14T03:57:27.058Z,0
2016-11-14T03:58:27.062Z,0
2016-11-14T03:59:26.969Z,0
2016-11-14T04:00:27.095Z,0
2016-11-14T04:01:26.978Z,0
2016-11-14T04:02:26.985Z,0
2016-11-14T04:03:26.919Z,0
2016-11-14T04:04:26.985Z,0
2016-11-14T04:05:26.967Z,0
2016-11-14T04:06:27.111Z,0
2016-11-14T04:07:26.976Z,0
2016-11-14T04:08:26.916Z,0
2016-11-14T04:09:26.960Z,0
2016-11-14T04:10:27.060Z,0
2016-11-14T04:11:27.009Z,0
2016-11-14T04:12:26.922Z,0
2016-11-14T04:13:27.169Z,0
2016-11-14T04:14:27.006Z,0
2016-11-14T04:15:27.080Z,0
2016-11-14T04:16:26.938Z,0
2016-11-14T04:17:26.992Z,0
2016-11-14T04:18:26.979Z,0
2016-11-14T04:19:26.960Z,0
2016-11-14T04:20:26.997Z,0
2016-11-14T04:21:27.126Z,0
2016-11-14T04:22:26.963Z,0
2016-11-14T04:23:26.998Z,0
2016-11-14T04:24:27.181Z,0
2016-11-14T04:25:27.274Z,0
2016-11-14T04:26:26.933Z,0
2016-11-14T04:27:27.058Z,0
2016-11-14T04:28:27.046Z,0
2016-11-14T04:29:26.952Z,0
2016-11-14T04:30:27.109Z,0
2016-11-14T04:31:27.079Z,0
2016-11-14T04:32:27.019Z,0
2016-11-14T04:33:26.968Z,0
2016-11-14T04:34:27.120Z,0
2016-11-14T04:35:26.987Z,0
2016-11-14T04:36:27.163Z,0
2016-11-14T04:37:27.136Z,0
2016-11-14T04:38:27.029Z,0
2016-11-14T04:39:27.021Z,0
2016-11-14T04:40:27.070Z,0
2016-11-14T04:41:27.083Z,0
2016-11-14T04:42:27.066Z,0
2016-11-14T04:43:27.006Z,0
2016-11-14T04:44:27.008Z,0
2016-11-14T04:45:26.959Z,0
2016-11-14T04:46:26.974Z,0
2016-11-14T04:47:26.938Z,0
2016-11-14T04:48:26.987Z,0
2016-11-14T04:49:26.965Z,0
2016-11-14T04:50:26.961Z,0
2016-11-14T04:51:26.949Z,0
2016-11-14T04:52:26.967Z,0
2016-11-14T04:53:26.922Z,0
2016-11-14T04:54:26.972Z,0
2016-11-14T04:55:26.939Z,0
2016-11-14T04:56:26.957Z,0
2016-11-14T04:57:26.990Z,0
2016-11-14T04:58:26.996Z,0
2016-11-14T04:59:26.951Z,0
2016-11-14T05:00:26.958Z,0
2016-11-14T05:01:27.002Z,0
2016-11-14T05:02:26.965Z,0
2016-11-14T05:03:26.942Z,0
2016-11-14T05:04:26.970Z,0
2016-11-14T05:05:27.202Z,0
2016-11-14T05:06:26.994Z,0
2016-11-14T05:07:27.012Z,0
2016-11-14T05:08:26.968Z,0
2016-11-14T05:09:26.961Z,0
2016-11-14T05:10:26.950Z,0
2016-11-14T05:11:27.014Z,0
2016-11-14T05:12:26.962Z,0
2016-11-14T05:13:27.041Z,0
2016-11-14T05:14:27.068Z,0
2016-11-14T05:15:26.970Z,0
2016-11-14T05:16:26.971Z,0
2016-11-14T05:17:26.949Z,0
2016-11-14T05:18:27.147Z,0
2016-11-14T05:19:26.974Z,0
2016-11-14T05:20:26.965Z,0
2016-11-14T05:21:26.980Z,0
2016-11-14T05:22:26.997Z,0
2016-11-14T05:23:27.000Z,0
2016-11-14T05:24:27.006Z,0
2016-11-14T05:25:26.992Z,0
2016-11-14T05:26:27.036Z,0
2016-11-14T05:27:27.010Z,0
2016-11-14T05:28:27.035Z,0
2016-11-14T05:29:27.043Z,0
2016-11-14T05:30:26.999Z,0
2016-11-14T05:31:27.067Z,0
2016-11-14T05:32:27.065Z,0
2016-11-14T05:33:27.019Z,0
2016-11-14T05:34:26.988Z,0
2016-11-14T05:35:26.988Z,0
2016-11-14T05:36:27.023Z,0
2016-11-14T05:37:26.975Z,0
2016-11-14T05:38:26.980Z,0
2016-11-14T05:39:26.999Z,0
2016-11-14T05:40:26.983Z,0
2016-11-14T05:41:27.016Z,0
2016-11-14T05:42:26.956Z,0
2016-11-14T05:43:27.046Z,0
2016-11-14T05:44:26.981Z,0
2016-11-14T05:45:26.942Z,0
2016-11-14T05:46:26.959Z,0
2016-11-14T05:47:27.055Z,0
2016-11-14T05:48:26.977Z,0
2016-11-14T05:49:26.963Z,0
2016-11-14T05:50:26.974Z,0
2016-11-14T05:51:26.971Z,0
2016-11-14T05:52:27.630Z,0
2016-11-14T05:53:26.975Z,0
2016-11-14T05:54:26.968Z,0
2016-11-14T05:55:26.965Z,0
2016-11-14T05:56:26.984Z,0
2016-11-14T05:57:27.063Z,0
2016-11-14T05:58:26.952Z,0
2016-11-14T05:59:26.973Z,0
2016-11-14T06:00:27.012Z,0
2016-11-14T06:01:27.019Z,0
2016-11-14T06:02:26.980Z,0
2016-11-14T06:03:27.012Z,0
2016-11-14T06:04:26.990Z,0
2016-11-14T06:05:27.010Z,0
2016-11-14T06:06:26.987Z,0
2016-11-14T06:07:27.023Z,0
2016-11-14T06:08:27.042Z,0
2016-11-14T06:09:27.034Z,0
2016-11-14T06:10:27.017Z,4
2016-11-14T06:11:27.038Z,4
2016-11-14T06:12:27.000Z,0
2016-11-14T06:13:27.023Z,0
2016-11-14T06:14:27.038Z,4
2016-11-14T06:15:26.978Z,4
2016-11-14T06:16:27.022Z,4
2016-11-14T06:17:27.031Z,8
2016-11-14T06:18:26.994Z,4
2016-11-14T06:19:26.986Z,4
2016-11-14T06:20:27.038Z,8
2016-11-14T06:21:27.015Z,12
2016-11-14T06:22:26.993Z,8
2016-11-14T06:23:27.029Z,12
2016-11-14T06:24:26.972Z,16
2016-11-14T06:25:27.012Z,20
2016-11-14T06:26:27.051Z,20
2016-11-14T06:27:27.000Z,24
2016-11-14T06:28:27.034Z,32
2016-11-14T06:29:26.984Z,36
2016-11-14T06:30:26.989Z,40
2016-11-14T06:31:27.035Z,48
2016-11-14T06:32:27.032Z,52
2016-11-14T06:33:27.039Z,64
2016-11-14T06:34:27.309Z,68
2016-11-14T06:35:27.009Z,80
2016-11-14T06:36:27.068Z,88
2016-11-14T06:37:27.057Z,100
2016-11-14T06:38:27.034Z,112
2016-11-14T06:39:27.024Z,128
2016-11-14T06:40:27.016Z,140
2016-11-14T06:41:27.001Z,156
2016-11-14T06:42:27.014Z,172
2016-11-14T06:43:27.112Z,188
2016-11-14T06:44:27.059Z,208
2016-11-14T06:45:27.051Z,228
2016-11-14T06:46:27.019Z,248
2016-11-14T06:47:27.082Z,272
2016-11-14T06:48:27.088Z,292
2016-11-14T06:49:27.050Z,308
2016-11-14T06:50:27.099Z,336
2016-11-14T06:51:27.091Z,364
2016-11-14T06:52:27.024Z,388
2016-11-14T06:53:27.033Z,416
2016-11-14T06:54:27.063Z,448
2016-11-14T06:55:27.117Z,480
2016-11-14T06:56:27.054Z,508
2016-11-14T06:57:27.297Z,532
2016-11-14T06:58:27.193Z,560
2016-11-14T06:59:27.044Z,592
2016-11-14T07:00:27.138Z,628
2016-11-14T07:01:27.027Z,656
2016-11-14T07:02:27.131Z,692
2016-11-14T07:03:27.070Z,724
2016-11-14T07:04:27.352Z,764
2016-11-14T07:05:27.105Z,796
2016-11-14T07:06:27.438Z,836
2016-11-14T07:07:27.018Z,872
2016-11-14T07:08:26.968Z,908
2016-11-14T07:09:27.460Z,952
2016-11-14T07:10:27.012Z,980
2016-11-14T07:11:27.043Z,1016
2016-11-14T07:12:27.025Z,1052
2016-11-14T07:13:27.061Z,1092
2016-11-14T07:14:26.995Z,1136
2016-11-14T07:15:27.017Z,1176
2016-11-14T07:16:27.028Z,1220
2016-11-14T07:17:27.111Z,1256
2016-11-14T07:18:27.054Z,1292
2016-11-14T07:19:27.031Z,1328
2016-11-14T07:20:27.018Z,1364
2016-11-14T07:21:27.062Z,1396
2016-11-14T07:22:27.066Z,1432
2016-11-14T07:23:27.082Z,1460
2016-11-14T07:24:27.018Z,1488
2016-11-14T07:25:27.056Z,1524
2016-11-14T07:26:27.032Z,1576
2016-11-14T07:27:27.169Z,1640
2016-11-14T07:28:27.110Z,1668
2016-11-14T07:29:27.101Z,1676
2016-11-14T07:30:27.109Z,1696
2016-11-14T07:31:27.074Z,1744
2016-11-14T07:32:27.072Z,1804
2016-11-14T07:33:27.098Z,1872
2016-11-14T07:34:27.153Z,1944
2016-11-14T07:35:27.134Z,2012
2016-11-14T07:36:27.060Z,2052
2016-11-14T07:37:27.066Z,2072
2016-11-14T07:38:27.161Z,2124
2016-11-14T07:39:27.065Z,2168
2016-11-14T07:40:27.044Z,2216
2016-11-14T07:41:27.025Z,2268
2016-11-14T07:42:27.056Z,2324
2016-11-14T07:43:27.050Z,2416
2016-11-14T07:44:27.068Z,2532
2016-11-14T07:45:27.028Z,2648
2016-11-14T07:46:27.061Z,2728
2016-11-14T07:47:27.064Z,2808
2016-11-14T07:48:27.038Z,2876
2016-11-14T07:49:27.049Z,2952
2016-11-14T07:50:27.055Z,3036
2016-11-14T07:51:27.066Z,3136
2016-11-14T07:52:27.081Z,3204
2016-11-14T07:53:27.069Z,3316
2016-11-14T07:54:27.038Z,3456
2016-11-14T07:55:27.019Z,3588
2016-11-14T07:56:27.040Z,3780
2016-11-14T07:57:27.048Z,3944
2016-11-14T07:58:27.040Z,4040
2016-11-14T07:59:27.073Z,4112
2016-11-14T08:00:27.022Z,4124
2016-11-14T08:01:27.059Z,4048
2016-11-14T08:02:27.067Z,4016
2016-11-14T08:03:27.094Z,3988
2016-11-14T08:04:27.078Z,3884
2016-11-14T08:05:27.135Z,3768
2016-11-14T08:06:27.094Z,3692
2016-11-14T08:07:27.208Z,3608
2016-11-14T08:08:27.082Z,3520
2016-11-14T08:09:27.090Z,3472
2016-11-14T08:10:27.430Z,3452
2016-11-14T08:11:27.059Z,3428
2016-11-14T08:12:27.049Z,3400
2016-11-14T08:13:27.107Z,3412
2016-11-14T08:14:27.078Z,3440
2016-11-14T08:15:27.038Z,3512
2016-11-14T08:16:27.048Z,3568
2016-11-14T08:17:27.098Z,3660
2016-11-14T08:18:27.120Z,3776
2016-11-14T08:19:27.094Z,3876
2016-11-14T08:20:27.201Z,3992
2016-11-14T08:21:27.177Z,4036
2016-11-14T08:22:27.182Z,4188
2016-11-14T08:23:27.184Z,4268
2016-11-14T08:24:27.204Z,4252
2016-11-14T08:25:27.197Z,4188
2016-11-14T08:26:27.158Z,4164
2016-11-14T08:27:27.129Z,4208
2016-11-14T08:28:27.131Z,4352
2016-11-14T08:29:27.139Z,4532
2016-11-14T08:30:27.110Z,4592
2016-11-14T08:31:27.120Z,4616
2016-11-14T08:32:27.185Z,4604
2016-11-14T08:33:27.144Z,4492
2016-11-14T08:34:27.152Z,4396
2016-11-14T08:35:27.158Z,4388
2016-11-14T08:36:27.150Z,4384
2016-11-14T08:37:27.158Z,4392
2016-11-14T08:38:27.191Z,4452
2016-11-14T08:39:27.185Z,4420
2016-11-14T08:40:27.163Z,4464
2016-11-14T08:41:27.155Z,4452
2016-11-14T08:42:27.196Z,4464
2016-11-14T08:43:27.115Z,4532
2016-11-14T08:44:27.114Z,4620
2016-11-14T08:45:27.095Z,4684
2016-11-14T08:46:27.393Z,4836
2016-11-14T08:47:27.065Z,4940
2016-11-14T08:48:27.115Z,5080
2016-11-14T08:49:27.090Z,5180
2016-11-14T08:50:27.101Z,5412
2016-11-14T08:51:27.849Z,5588
2016-11-14T08:52:27.140Z,5676
2016-11-14T08:53:27.134Z,5760
2016-11-14T08:54:27.137Z,5812
2016-11-14T08:55:27.148Z,5904
2016-11-14T08:56:27.102Z,6076
2016-11-14T08:57:27.705Z,6208
2016-11-14T08:58:27.150Z,6320
2016-11-14T08:59:27.111Z,6356
2016-11-14T09:00:27.082Z,6388
2016-11-14T09:01:27.105Z,6432
2016-11-14T09:02:27.145Z,6420
2016-11-14T09:03:27.124Z,6424
2016-11-14T09:04:27.148Z,6448
2016-11-14T09:05:27.137Z,6440
2016-11-14T09:06:27.102Z,6400
2016-11-14T09:07:27.168Z,6336
2016-11-14T09:08:27.101Z,6268
2016-11-14T09:09:27.090Z,6260
2016-11-14T09:10:27.056Z,6288
2016-11-14T09:11:27.107Z,6332
2016-11-14T09:12:27.143Z,6420
2016-11-14T09:13:27.098Z,6428
2016-11-14T09:14:27.127Z,6448
2016-11-14T09:15:27.129Z,6388
2016-11-14T09:16:27.113Z,6384
2016-11-14T09:17:27.119Z,6432
2016-11-14T09:18:27.139Z,6428
2016-11-14T09:19:27.181Z,6428
2016-11-14T09:20:27.167Z,6580
2016-11-14T09:21:27.126Z,6544
2016-11-14T09:22:27.124Z,6548
2016-11-14T09:23:27.114Z,6496
2016-11-14T09:24:27.137Z,6388
2016-11-14T09:25:27.293Z,6328
2016-11-14T09:26:27.167Z,6300
2016-11-14T09:27:27.104Z,6260
2016-11-14T09:28:27.148Z,6244
2016-11-14T09:29:27.121Z,6264
2016-11-14T09:30:27.093Z,6300
2016-11-14T09:31:27.155Z,6272
2016-11-14T09:32:27.116Z,6192
2016-11-14T09:33:27.156Z,6204
2016-11-14T09:34:27.123Z,6232
2016-11-14T09:35:27.105Z,6212
2016-11-14T09:36:27.095Z,6228
2016-11-14T09:37:27.094Z,6236
2016-11-14T09:38:27.126Z,6212
2016-11-14T09:39:27.153Z,6164
2016-11-14T09:40:27.165Z,6132
2016-11-14T09:41:27.177Z,6048
2016-11-14T09:42:27.179Z,5948
2016-11-14T09:43:27.185Z,5904
2016-11-14T09:44:27.229Z,5920
2016-11-14T09:45:27.249Z,5888
2016-11-14T09:46:27.231Z,5788
2016-11-14T09:47:27.165Z,5688
2016-11-14T09:48:27.273Z,5624
2016-11-14T09:49:27.214Z,5584
2016-11-14T09:50:27.213Z,5608
2016-11-14T09:51:27.192Z,5656
2016-11-14T09:52:28.040Z,5716
2016-11-14T09:53:27.964Z,5708
2016-11-14T09:54:27.165Z,5732
2016-11-14T09:55:27.168Z,5724
2016-11-14T09:56:27.227Z,5720
2016-11-14T09:57:27.155Z,5732
2016-11-14T09:58:27.268Z,5804
2016-11-14T09:59:27.683Z,5868
2016-11-14T10:00:27.197Z,5972
2016-11-14T10:01:27.114Z,6052
2016-11-14T10:02:27.178Z,6112
2016-11-14T10:03:27.191Z,6192
2016-11-14T10:04:27.173Z,6132
2016-11-14T10:05:27.165Z,6100
2016-11-14T10:06:27.253Z,6036
2016-11-14T10:07:27.273Z,6004
2016-11-14T10:08:27.172Z,5984
2016-11-14T10:09:27.158Z,6056
2016-11-14T10:10:27.147Z,6188
2016-11-14T10:11:27.200Z,6276
2016-11-14T10:12:27.190Z,6296
2016-11-14T10:13:27.181Z,6248
2016-11-14T10:14:27.242Z,6252
2016-11-14T10:15:27.124Z,6312
2016-11-14T10:16:27.137Z,6452
2016-11-14T10:17:27.267Z,6660
2016-11-14T10:18:27.226Z,6760
2016-11-14T10:19:27.172Z,6764
2016-11-14T10:20:27.143Z,6804
2016-11-14T10:21:27.140Z,6840
2016-11-14T10:22:27.174Z,6848
2016-11-14T10:23:27.161Z,6928
2016-11-14T10:24:27.129Z,7028
2016-11-14T10:25:27.155Z,7028
2016-11-14T10:26:27.155Z,7004
2016-11-14T10:27:27.130Z,6984
2016-11-14T10:28:27.172Z,6836
2016-11-14T10:29:27.169Z,6536
2016-11-14T10:30:27.149Z,6272
2016-11-14T10:31:27.173Z,6080
2016-11-14T10:32:27.229Z,6072
2016-11-14T10:33:28.177Z,6112
2016-11-14T10:34:28.201Z,6228
2016-11-14T10:35:27.234Z,6432
2016-11-14T10:36:27.201Z,6652
2016-11-14T10:37:27.298Z,6876
2016-11-14T10:38:27.248Z,7120
2016-11-14T10:39:27.200Z,7312
2016-11-14T10:40:27.217Z,7344
2016-11-14T10:41:27.206Z,7364
2016-11-14T10:42:27.223Z,7284
2016-11-14T10:43:27.304Z,7128
2016-11-14T10:44:27.279Z,6888
2016-11-14T10:45:27.240Z,6748
2016-11-14T10:46:27.165Z,6808
2016-11-14T10:47:27.214Z,6984
2016-11-14T10:48:27.317Z,7052
2016-11-14T10:49:27.237Z,6972
2016-11-14T10:50:27.251Z,6872
2016-11-14T10:51:27.188Z,6744
2016-11-14T10:52:27.191Z,6656
2016-11-14T10:53:27.270Z,6736
2016-11-14T10:54:27.346Z,6896
2016-11-14T10:55:27.239Z,7196
2016-11-14T10:56:27.288Z,7484
2016-11-14T10:57:27.266Z,7660
2016-11-14T10:58:27.872Z,7696
2016-11-14T10:59:27.304Z,7684
2016-11-14T11:00:27.258Z,7748
2016-11-14T11:01:27.262Z,7712
2016-11-14T11:02:27.229Z,7556
2016-11-14T11:03:27.860Z,7444
2016-11-14T11:04:27.288Z,7340
2016-11-14T11:05:27.265Z,7256
2016-11-14T11:06:27.306Z,7220
2016-11-14T11:07:27.291Z,7276
2016-11-14T11:08:27.357Z,7328
2016-11-14T11:09:27.338Z,7308
2016-11-14T11:10:27.332Z,7288
2016-11-14T11:11:27.386Z,7236
2016-11-14T11:12:27.387Z,7080
2016-11-14T11:13:27.616Z,6880
2016-11-14T11:14:27.358Z,6940
2016-11-14T11:15:27.357Z,7148
2016-11-14T11:16:27.809Z,7260
2016-11-14T11:17:27.274Z,7420
2016-11-14T11:18:27.313Z,7608
2016-11-14T11:19:27.221Z,7688
2016-11-14T11:20:27.512Z,7724
2016-11-14T11:21:28.165Z,7672
2016-11-14T11:22:27.864Z,7680
2016-11-14T11:23:27.253Z,7756
2016-11-14T11:24:27.208Z,7988
2016-11-14T11:25:27.252Z,8204
2016-11-14T11:26:28.471Z,8340
2016-11-14T11:27:27.870Z,8300
2016-11-14T11:28:27.271Z,7956
2016-11-14T11:29:27.237Z,7500
2016-11-14T11:30:27.915Z,7244
2016-11-14T11:31:27.228Z,7080
2016-11-14T11:32:27.249Z,7268
2016-11-14T11:33:27.951Z,7572
2016-11-14T11:34:27.242Z,7736
2016-11-14T11:35:27.191Z,7696
2016-11-14T11:36:27.305Z,7668
2016-11-14T11:37:27.291Z,7616
2016-11-14T11:38:27.940Z,7512
2016-11-14T11:39:27.258Z,7488
2016-11-14T11:40:27.839Z,7664
2016-11-14T11:41:27.275Z,7788
2016-11-14T11:42:27.233Z,7820
2016-11-14T11:43:27.301Z,7836
2016-11-14T11:44:27.207Z,7872
2016-11-14T11:45:27.249Z,7932
2016-11-14T11:46:27.265Z,8060
2016-11-14T11:47:27.236Z,8108
2016-11-14T11:48:28.440Z,8008
2016-11-14T11:49:27.586Z,7868
2016-11-14T11:50:27.533Z,7772
2016-11-14T11:51:27.294Z,7608
2016-11-14T11:52:27.301Z,7188
2016-11-14T11:53:28.214Z,6828
2016-11-14T11:54:27.332Z,6648
2016-11-14T11:55:27.349Z,6624
2016-11-14T11:56:27.335Z,6680
2016-11-14T11:57:27.326Z,6704
2016-11-14T11:58:27.330Z,6748
2016-11-14T11:59:27.287Z,6684
2016-11-14T12:00:27.375Z,6468
2016-11-14T12:01:27.288Z,6348
2016-11-14T12:02:27.331Z,6312
2016-11-14T12:03:27.237Z,6320
2016-11-14T12:04:27.191Z,6336
2016-11-14T12:05:27.309Z,6292
2016-11-14T12:06:27.354Z,6240
2016-11-14T12:07:27.450Z,6244
2016-11-14T12:08:27.360Z,6276
2016-11-14T12:09:27.332Z,6324
2016-11-14T12:10:27.358Z,6456
2016-11-14T12:11:27.348Z,6460
2016-11-14T12:12:27.559Z,6188
2016-11-14T12:13:27.278Z,5856
2016-11-14T12:14:27.344Z,5708
2016-11-14T12:15:27.334Z,5540
2016-11-14T12:16:27.370Z,5464
2016-11-14T12:17:27.274Z,5752
2016-11-14T12:18:27.479Z,6164
2016-11-14T12:19:27.813Z,6360
2016-11-14T12:20:27.355Z,6444
2016-11-14T12:21:27.331Z,6700
2016-11-14T12:22:27.444Z,6780
2016-11-14T12:23:27.729Z,6792
2016-11-14T12:24:27.353Z,6988
2016-11-14T12:25:27.328Z,7196
2016-11-14T12:26:28.125Z,7220
2016-11-14T12:27:27.405Z,7088
2016-11-14T12:28:27.431Z,6868
2016-11-14T12:29:27.398Z,6792
2016-11-14T12:30:27.408Z,6748
2016-11-14T12:31:27.568Z,6448
2016-11-14T12:32:27.353Z,6624
2016-11-14T12:33:27.414Z,6720
2016-11-14T12:34:27.655Z,6708
2016-11-14T12:35:28.320Z,6616
2016-11-14T12:36:27.392Z,6396
2016-11-14T12:37:27.450Z,6240
2016-11-14T12:38:27.652Z,6144
2016-11-14T12:39:27.430Z,6044
2016-11-14T12:40:27.305Z,5900
2016-11-14T12:41:27.347Z,5840
2016-11-14T12:42:27.325Z,5816
2016-11-14T12:43:27.296Z,5712
2016-11-14T12:44:27.374Z,5512
2016-11-14T12:45:27.299Z,5380
2016-11-14T12:46:27.344Z,5440
2016-11-14T12:47:27.398Z,5596
2016-11-14T12:48:27.449Z,5692
2016-11-14T12:49:27.346Z,5736
2016-11-14T12:50:27.606Z,5740
2016-11-14T12:51:27.481Z,5736
2016-11-14T12:52:27.321Z,5772
2016-11-14T12:53:27.641Z,5780
2016-11-14T12:54:27.551Z,5804
2016-11-14T12:55:27.385Z,5944
2016-11-14T12:56:28.215Z,6108
2016-11-14T12:57:28.013Z,6212
2016-11-14T12:58:27.437Z,6284
2016-11-14T12:59:27.526Z,6296
2016-11-14T13:00:27.507Z,6284
2016-11-14T13:01:27.352Z,6224
2016-11-14T13:02:27.423Z,6128
2016-11-14T13:03:27.378Z,6100
2016-11-14T13:04:27.426Z,6116
2016-11-14T13:05:27.415Z,6120
2016-11-14T13:06:27.453Z,6120
2016-11-14T13:07:27.439Z,6144
2016-11-14T13:08:27.526Z,6148
2016-11-14T13:09:28.133Z,6152
2016-11-14T13:10:28.207Z,6176
2016-11-14T13:11:27.513Z,6204
2016-11-14T13:12:28.299Z,6200
2016-11-14T13:13:28.155Z,6212
2016-11-14T13:14:27.666Z,6192
2016-11-14T13:15:27.436Z,6148
2016-11-14T13:16:27.423Z,6112
2016-11-14T13:17:27.504Z,6068
2016-11-14T13:18:27.469Z,6004
2016-11-14T13:19:27.516Z,5928
2016-11-14T13:20:27.535Z,5848
2016-11-14T13:21:27.627Z,5808
2016-11-14T13:22:27.813Z,5772
2016-11-14T13:23:27.467Z,5792
2016-11-14T13:24:27.542Z,5764
2016-11-14T13:25:27.420Z,5696
2016-11-14T13:26:27.557Z,5616
2016-11-14T13:27:27.506Z,5524
2016-11-14T13:28:27.557Z,5424
2016-11-14T13:29:27.637Z,5308
2016-11-14T13:30:27.625Z,5184
2016-11-14T13:31:27.454Z,5048
2016-11-14T13:32:28.198Z,4908
2016-11-14T13:33:27.522Z,4776
2016-11-14T13:34:27.493Z,4652
2016-11-14T13:35:28.261Z,4540
2016-11-14T13:36:27.550Z,4460
2016-11-14T13:37:27.490Z,4408
2016-11-14T13:38:27.648Z,4388
2016-11-14T13:39:27.438Z,4392
2016-11-14T13:40:27.432Z,4416
2016-11-14T13:41:27.480Z,4456
2016-11-14T13:42:27.574Z,4476
2016-11-14T13:43:27.701Z,4500
2016-11-14T13:44:27.352Z,4520
2016-11-14T13:45:27.506Z,4544
2016-11-14T13:46:27.998Z,4568
2016-11-14T13:47:35.137Z,4588
2016-11-14T13:48:27.615Z,4600
2016-11-14T13:49:27.739Z,4600
2016-11-14T13:50:27.341Z,4600
2016-11-14T13:51:27.611Z,4600
2016-11-14T13:52:27.538Z,4604
2016-11-14T13:53:27.512Z,4596
2016-11-14T13:54:27.630Z,4560
2016-11-14T13:55:27.528Z,4488
2016-11-14T13:56:27.851Z,4376
2016-11-14T13:57:27.924Z,4252
2016-11-14T13:58:27.487Z,4140